createdAt,value
2023-05-04T00:02:17.339Z,101687.63
2023-05-04T00:04:43.840Z,101684.84
2023-05-04T00:07:10.447Z,101686.50
2023-05-04T00:09:37.039Z,101676.16
2023-05-04T00:12:03.826Z,101674.75
2023-05-04T00:14:30.411Z,101664.69
2023-05-04T00:16:56.895Z,101668.44
2023-05-04T00:19:23.635Z,101659.28
2023-05-04T00:21:50.938Z,101664.38
2023-05-04T00:24:17.520Z,101660.25
2023-05-04T00:26:45.610Z,101651.47
2023-05-04T00:29:12.183Z,101661.03
2023-05-04T00:31:40.570Z,101662.03
2023-05-04T00:34:07.378Z,101654.16
2023-05-04T00:36:33.889Z,101654.16
2023-05-04T00:39:00.689Z,101651.69
2023-05-04T00:41:27.268Z,101650.06
2023-05-04T00:43:53.798Z,101644.16
2023-05-04T00:46:20.511Z,101637.13
2023-05-04T00:48:49.425Z,101637.72
2023-05-04T00:51:17.318Z,101642.28
2023-05-04T00:53:44.818Z,101647.13
2023-05-04T00:56:12.617Z,101639.72
2023-05-04T00:59:04.046Z,101644.00
2023-05-04T01:01:30.789Z,101637.78
2023-05-04T01:03:57.758Z,101642.25
2023-05-04T01:06:49.130Z,101644.03
2023-05-04T01:09:18.848Z,101644.50
2023-05-04T01:12:08.248Z,101641.44
2023-05-04T01:14:36.119Z,101647.81
2023-05-04T01:17:05.363Z,101642.72
2023-05-04T01:19:32.745Z,101644.13
2023-05-04T01:21:59.356Z,101640.84
2023-05-04T01:24:27.598Z,101648.75
2023-05-04T01:27:00.430Z,101651.28
2023-05-04T01:29:50.416Z,101638.53
2023-05-04T01:32:19.190Z,101648.53
2023-05-04T01:34:45.828Z,101648.63
2023-05-04T01:37:12.419Z,101639.84
2023-05-04T01:39:39.030Z,101653.50
2023-05-04T01:42:07.372Z,101653.25
2023-05-04T01:44:34.168Z,101653.16
2023-05-04T01:47:00.708Z,101648.00
2023-05-04T01:49:27.244Z,101647.88
2023-05-04T01:51:54.046Z,101651.88
2023-05-04T01:54:20.699Z,101643.69
2023-05-04T01:56:47.494Z,101648.84
2023-05-04T01:59:14.364Z,101652.81
2023-05-04T02:01:42.097Z,101653.88
2023-05-04T02:04:08.772Z,101652.22
2023-05-04T02:06:35.400Z,101644.97
2023-05-04T02:09:03.731Z,101650.81
2023-05-04T02:11:30.313Z,101641.81
2023-05-04T02:13:56.880Z,101641.00
2023-05-04T02:16:23.397Z,101639.81
2023-05-04T02:18:50.200Z,101646.25
2023-05-04T02:21:17.571Z,101641.44
2023-05-04T02:23:44.292Z,101641.59
2023-05-04T02:26:11.168Z,101644.50
2023-05-04T02:28:37.974Z,101637.84
2023-05-04T02:31:04.609Z,101631.38
2023-05-04T02:33:31.210Z,101639.72
2023-05-04T02:35:57.687Z,101631.03
2023-05-04T02:38:24.182Z,101627.38
2023-05-04T02:40:50.742Z,101628.19
2023-05-04T02:43:17.270Z,101625.75
2023-05-04T02:45:43.770Z,101629.97
2023-05-04T02:48:10.644Z,101637.34
2023-05-04T02:50:37.661Z,101637.47
2023-05-04T02:53:04.995Z,101638.63
2023-05-04T02:55:31.627Z,101633.97
2023-05-04T02:57:58.369Z,101629.84
2023-05-04T03:00:24.939Z,101628.66
2023-05-04T03:02:53.541Z,101629.16
2023-05-04T03:05:20.800Z,101627.63
2023-05-04T03:07:47.423Z,101628.66
2023-05-04T03:10:14.000Z,101635.00
2023-05-04T03:12:40.970Z,101620.34
2023-05-04T03:15:08.386Z,101628.06
2023-05-04T03:17:35.113Z,101631.34
2023-05-04T03:20:01.921Z,101636.84
2023-05-04T03:22:28.726Z,101633.69
2023-05-04T03:24:55.614Z,101640.97
2023-05-04T03:27:22.410Z,101640.13
2023-05-04T03:30:05.064Z,101637.06
2023-05-04T03:32:31.889Z,101640.22
2023-05-04T03:34:58.682Z,101638.34
2023-05-04T03:37:25.694Z,101633.19
2023-05-04T03:39:52.345Z,101635.06
2023-05-04T03:42:18.831Z,101632.59
2023-05-04T03:44:47.154Z,101640.22
2023-05-04T03:47:13.689Z,101638.94
2023-05-04T03:49:40.629Z,101634.75
2023-05-04T03:52:07.396Z,101641.66
2023-05-04T03:54:33.910Z,101639.09
2023-05-04T03:57:00.523Z,101646.81
2023-05-04T03:59:27.671Z,101640.75
2023-05-04T04:01:54.727Z,101636.88
2023-05-04T04:04:21.237Z,101646.81
2023-05-04T04:06:48.022Z,101642.63
2023-05-04T04:09:16.311Z,101633.72
2023-05-04T04:11:42.826Z,101636.63
2023-05-04T04:14:09.892Z,101628.78
2023-05-04T04:16:36.718Z,101634.53
2023-05-04T04:19:03.670Z,101639.34
2023-05-04T04:21:30.343Z,101636.88
2023-05-04T04:23:57.117Z,101636.16
2023-05-04T04:26:23.941Z,101641.78
2023-05-04T04:28:51.087Z,101645.88
2023-05-04T04:31:19.998Z,101634.41
2023-05-04T04:33:47.949Z,101640.41
2023-05-04T04:36:17.462Z,101630.81
2023-05-04T04:38:44.659Z,101637.13
2023-05-04T04:41:12.083Z,101639.94
2023-05-04T04:43:38.695Z,101638.06
2023-05-04T04:46:05.782Z,101643.09
2023-05-04T04:48:32.418Z,101641.09
2023-05-04T04:50:59.052Z,101631.50
2023-05-04T04:53:26.083Z,101626.56
2023-05-04T04:55:54.131Z,101628.91
2023-05-04T04:58:21.006Z,101627.72
2023-05-04T05:00:47.648Z,101626.03
2023-05-04T05:03:15.655Z,101625.13
2023-05-04T05:05:42.490Z,101618.94
2023-05-04T05:08:09.044Z,101615.66
2023-05-04T05:10:36.335Z,101620.53
2023-05-04T05:13:02.954Z,101609.53
2023-05-04T05:15:30.498Z,101618.75
2023-05-04T05:17:57.135Z,101616.47
2023-05-04T05:20:24.074Z,101622.50
2023-05-04T05:22:51.678Z,101618.03
2023-05-04T05:25:19.262Z,101616.41
2023-05-04T05:27:46.039Z,101625.50
2023-05-04T05:30:12.755Z,101626.94
2023-05-04T05:32:39.341Z,101620.72
2023-05-04T05:35:06.396Z,101619.06
2023-05-04T05:37:34.223Z,101617.72
2023-05-04T05:40:01.235Z,101615.44
2023-05-04T05:42:30.371Z,101613.09
2023-05-04T05:44:56.762Z,101615.56
2023-05-04T05:47:23.276Z,101610.28
2023-05-04T05:49:50.046Z,101610.72
2023-05-04T05:52:16.820Z,101611.31
2023-05-04T05:54:43.621Z,101614.47
2023-05-04T05:57:10.412Z,101609.19
2023-05-04T05:59:37.042Z,101612.19
2023-05-04T06:02:03.734Z,101610.53
2023-05-04T06:04:30.295Z,101605.13
2023-05-04T06:06:56.842Z,101603.91
2023-05-04T06:09:24.056Z,101601.72
2023-05-04T06:11:51.161Z,101598.41
2023-05-04T06:14:19.544Z,101597.28
2023-05-04T06:16:46.237Z,101599.56
2023-05-04T06:19:12.832Z,101597.84
2023-05-04T06:21:39.315Z,101600.94
2023-05-04T06:24:06.268Z,101596.13
2023-05-04T06:26:33.166Z,101585.63
2023-05-04T06:28:59.809Z,101586.97
2023-05-04T06:31:26.423Z,101588.41
2023-05-04T06:33:53.027Z,101583.00
2023-05-04T06:36:19.577Z,101581.16
2023-05-04T06:38:46.570Z,101573.81
2023-05-04T06:41:13.506Z,101577.41
2023-05-04T06:43:42.416Z,101564.13
2023-05-04T06:46:09.154Z,101574.53
2023-05-04T06:48:36.248Z,101575.34
2023-05-04T06:51:03.194Z,101576.69
2023-05-04T06:53:29.869Z,101578.50
2023-05-04T06:55:56.365Z,101578.84
2023-05-04T06:58:23.541Z,101578.72
2023-05-04T07:00:50.314Z,101578.84
2023-05-04T07:03:17.318Z,101579.91
2023-05-04T07:05:45.362Z,101584.66
2023-05-04T07:08:12.524Z,101588.03
2023-05-04T07:10:39.456Z,101580.09
2023-05-04T07:13:07.070Z,101576.06
2023-05-04T07:15:33.952Z,101585.06
2023-05-04T07:18:01.496Z,101577.16
2023-05-04T07:20:28.923Z,101576.03
2023-05-04T07:22:58.827Z,101571.03
2023-05-04T07:25:26.510Z,101576.72
2023-05-04T07:27:53.615Z,101566.53
2023-05-04T07:30:21.260Z,101573.47
2023-05-04T07:32:47.960Z,101559.88
2023-05-04T07:35:15.162Z,101555.81
2023-05-04T07:37:41.691Z,101559.44
2023-05-04T07:40:08.821Z,101555.69
2023-05-04T07:42:35.710Z,101558.63
2023-05-04T07:45:02.229Z,101558.41
2023-05-04T07:47:29.044Z,101560.56
2023-05-04T07:49:55.761Z,101551.06
2023-05-04T07:52:22.520Z,101550.44
2023-05-04T07:54:53.430Z,101551.22
2023-05-04T07:57:20.728Z,101551.31
2023-05-04T07:59:47.619Z,101549.84
2023-05-04T08:02:14.304Z,101548.00
2023-05-04T08:04:40.928Z,101550.88
2023-05-04T08:07:07.377Z,101549.53
2023-05-04T08:09:33.894Z,101546.03
2023-05-04T08:12:00.514Z,101546.63
2023-05-04T08:14:27.285Z,101536.03
2023-05-04T08:16:53.817Z,101535.16
2023-05-04T08:19:20.395Z,101545.94
2023-05-04T08:21:46.935Z,101540.59
2023-05-04T08:24:13.538Z,101539.06
2023-05-04T08:26:41.418Z,101541.56
2023-05-04T08:29:10.775Z,101538.72
2023-05-04T08:31:37.648Z,101542.72
2023-05-04T08:34:04.378Z,101536.78
2023-05-04T08:36:34.689Z,101540.16
2023-05-04T08:39:01.459Z,101537.28
2023-05-04T08:41:28.108Z,101533.59
2023-05-04T08:43:54.739Z,101539.22
2023-05-04T08:46:21.352Z,101533.09
2023-05-04T08:48:48.418Z,101544.00
2023-05-04T08:51:15.330Z,101530.94
2023-05-04T08:53:45.952Z,101541.09
2023-05-04T08:56:14.203Z,101539.63
2023-05-04T08:58:48.966Z,101530.13
2023-05-04T09:01:18.271Z,101531.56
2023-05-04T09:03:46.989Z,101520.03
2023-05-04T09:06:15.374Z,101530.97
2023-05-04T09:08:42.975Z,101521.28
2023-05-04T09:11:09.989Z,101522.09
2023-05-04T09:13:37.111Z,101513.56
2023-05-04T09:16:04.100Z,101503.94
2023-05-04T09:18:41.415Z,101502.69
2023-05-04T09:21:09.105Z,101505.47
2023-05-04T09:23:49.274Z,101496.81
2023-05-04T09:26:29.472Z,101495.19
2023-05-04T09:28:56.695Z,101492.00
2023-05-04T09:31:23.820Z,101496.03
2023-05-04T09:33:52.715Z,101490.84
2023-05-04T09:36:21.860Z,101488.66
2023-05-04T09:38:49.208Z,101492.97
2023-05-04T09:41:15.869Z,101486.22
2023-05-04T09:43:44.020Z,101472.75
2023-05-04T09:46:18.256Z,101484.06
2023-05-04T09:48:55.872Z,101477.09
2023-05-04T09:51:24.717Z,101477.25
2023-05-04T09:53:52.052Z,101473.41
2023-05-04T09:56:47.845Z,101474.00
2023-05-04T09:59:15.410Z,101464.97
2023-05-04T10:01:44.697Z,101471.34
2023-05-04T10:04:12.072Z,101461.41
2023-05-04T10:06:39.278Z,101461.50
2023-05-04T10:09:06.485Z,101453.28
2023-05-04T10:11:33.256Z,101448.00
2023-05-04T10:14:00.328Z,101444.78
2023-05-04T10:16:51.647Z,101443.75
2023-05-04T10:19:35.765Z,101435.47
2023-05-04T10:22:37.391Z,101444.53
2023-05-04T10:25:13.008Z,101432.47
2023-05-04T10:28:01.911Z,101427.75
2023-05-04T10:30:28.876Z,101431.91
2023-05-04T10:32:59.164Z,101415.16
2023-05-04T10:35:27.648Z,101415.69
2023-05-04T10:37:55.260Z,101410.31
2023-05-04T10:40:34.981Z,101410.25
2023-05-04T10:43:01.542Z,101405.72
2023-05-04T10:45:41.730Z,101397.34
2023-05-04T10:48:09.463Z,101404.31
2023-05-04T10:50:43.572Z,101392.56
2023-05-04T10:53:12.198Z,101393.16
2023-05-04T10:55:43.829Z,101391.88
2023-05-04T10:58:14.950Z,101391.25
2023-05-04T11:00:43.126Z,101377.25
2023-05-04T11:03:10.530Z,101379.41
2023-05-04T11:05:47.321Z,101382.19
2023-05-04T11:08:21.639Z,101373.78
2023-05-04T11:10:49.773Z,101377.78
2023-05-04T11:13:16.581Z,101372.06
2023-05-04T11:15:50.185Z,101361.19
2023-05-04T11:18:30.847Z,101359.13
2023-05-04T11:20:57.647Z,101367.81
2023-05-04T11:23:24.444Z,101361.00
2023-05-04T11:25:50.896Z,101363.56
2023-05-04T11:28:17.534Z,101354.34
2023-05-04T11:30:46.155Z,101344.38
2023-05-04T11:33:14.285Z,101338.53
2023-05-04T11:35:42.340Z,101348.47
2023-05-04T11:38:08.832Z,101338.88
2023-05-04T11:40:37.358Z,101335.31
2023-05-04T11:43:04.282Z,101333.00
2023-05-04T11:45:32.755Z,101338.97
2023-05-04T11:47:59.733Z,101333.03
2023-05-04T11:50:27.951Z,101327.44
2023-05-04T11:53:09.271Z,101332.94
2023-05-04T11:55:37.389Z,101328.22
2023-05-04T11:58:08.664Z,101329.09
2023-05-04T12:00:39.928Z,101326.66
2023-05-04T12:03:09.050Z,101324.09
2023-05-04T12:05:36.800Z,101311.50
2023-05-04T12:08:03.739Z,101319.03
2023-05-04T12:10:35.227Z,101317.84
2023-05-04T12:13:02.275Z,101319.00
2023-05-04T12:15:34.245Z,101317.38
2023-05-04T12:18:02.709Z,101312.34
2023-05-04T12:20:30.575Z,101319.59
2023-05-04T12:22:58.133Z,101312.75
2023-05-04T12:25:25.011Z,101314.50
2023-05-04T12:27:51.684Z,101311.28
2023-05-04T12:30:18.176Z,101306.91
2023-05-04T12:32:44.884Z,101298.19
2023-05-04T12:35:11.404Z,101302.63
2023-05-04T12:37:38.224Z,101298.59
2023-05-04T12:40:17.294Z,101303.50
2023-05-04T12:42:53.728Z,101302.22
2023-05-04T12:45:22.465Z,101294.81
2023-05-04T12:47:49.272Z,101303.47
2023-05-04T12:50:15.843Z,101294.00
2023-05-04T12:52:42.330Z,101290.00
2023-05-04T12:55:09.041Z,101290.94
2023-05-04T12:57:36.160Z,101284.59
2023-05-04T13:00:05.967Z,101282.06
2023-05-04T13:02:32.497Z,101282.72
2023-05-04T13:04:58.993Z,101274.28
2023-05-04T13:07:25.398Z,101267.84
2023-05-04T13:09:51.817Z,101267.28
2023-05-04T13:12:18.272Z,101261.13
2023-05-04T13:14:44.878Z,101258.84
2023-05-04T13:17:11.903Z,101260.34
2023-05-04T13:19:38.522Z,101255.97
2023-05-04T13:22:04.958Z,101245.97
2023-05-04T13:24:31.629Z,101253.00
2023-05-04T13:26:58.419Z,101245.97
2023-05-04T13:29:24.812Z,101240.06
2023-05-04T13:31:51.376Z,101236.59
2023-05-04T13:34:18.130Z,101239.63
2023-05-04T13:36:44.525Z,101233.44
2023-05-04T13:39:11.022Z,101229.03
2023-05-04T13:41:37.440Z,101228.63
2023-05-04T13:44:03.976Z,101231.97
2023-05-04T13:46:30.498Z,101219.75
2023-05-04T13:48:57.276Z,101219.22
2023-05-04T13:51:23.830Z,101220.19
2023-05-04T13:53:50.294Z,101217.78
2023-05-04T13:56:16.714Z,101215.44
2023-05-04T13:58:43.400Z,101206.88
2023-05-04T14:01:10.239Z,101200.13
2023-05-04T14:03:36.735Z,101199.13
2023-05-04T14:06:03.689Z,101196.41
2023-05-04T14:08:30.090Z,101193.03
2023-05-04T14:10:56.573Z,101190.47
2023-05-04T14:13:23.304Z,101186.47
2023-05-04T14:15:49.858Z,101185.22
2023-05-04T14:18:17.004Z,101180.13
2023-05-04T14:20:43.519Z,101175.75
2023-05-04T14:23:10.173Z,101179.75
2023-05-04T14:25:36.638Z,101167.19
2023-05-04T14:28:03.190Z,101162.50
2023-05-04T14:30:29.683Z,101153.03
2023-05-04T14:32:58.413Z,101153.53
2023-05-04T14:35:25.525Z,101155.94
2023-05-04T14:37:52.036Z,101160.56
2023-05-04T14:40:18.524Z,101157.34
2023-05-04T14:42:44.953Z,101147.00
2023-05-04T14:45:11.801Z,101156.81
2023-05-04T14:47:38.245Z,101140.66
2023-05-04T14:50:06.198Z,101144.69
2023-05-04T14:52:32.908Z,101139.84
2023-05-04T14:54:59.413Z,101130.66
2023-05-04T14:57:25.838Z,101140.91
2023-05-04T14:59:52.289Z,101141.63
2023-05-04T15:02:19.113Z,101129.16
2023-05-04T15:04:46.868Z,101120.25
2023-05-04T15:07:15.860Z,101124.63
2023-05-04T15:09:42.409Z,101113.09
2023-05-04T15:12:09.615Z,101123.63
2023-05-04T15:14:36.591Z,101111.41
2023-05-04T15:17:04.522Z,101109.94
2023-05-04T15:19:31.027Z,101114.56
2023-05-04T15:21:57.440Z,101109.00
2023-05-04T15:24:23.886Z,101111.44
2023-05-04T15:26:50.360Z,101107.66
2023-05-04T15:29:16.881Z,101111.81
2023-05-04T15:31:43.441Z,101099.06
2023-05-04T15:34:09.986Z,101104.63
2023-05-04T15:36:36.501Z,101102.78
2023-05-04T15:39:05.275Z,101094.63
2023-05-04T15:41:34.513Z,101094.19
2023-05-04T15:44:01.916Z,101103.75
2023-05-04T15:46:28.531Z,101103.28
2023-05-04T15:48:55.130Z,101102.38
2023-05-04T15:51:21.567Z,101096.22
2023-05-04T15:53:48.056Z,101099.84
2023-05-04T15:56:15.459Z,101099.84
2023-05-04T15:58:43.793Z,101094.28
2023-05-04T16:01:14.085Z,101084.38
2023-05-04T16:03:41.334Z,101091.16
2023-05-04T16:06:08.879Z,101082.19
2023-05-04T16:08:37.372Z,101074.47
2023-05-04T16:11:04.507Z,101062.22
2023-05-04T16:13:31.105Z,101049.25
2023-05-04T16:15:58.013Z,101049.69
2023-05-04T16:18:24.453Z,101041.69
2023-05-04T16:20:51.330Z,101039.34
2023-05-04T16:23:17.992Z,101044.44
2023-05-04T16:25:44.581Z,101039.13
2023-05-04T16:28:11.595Z,101044.03
2023-05-04T16:30:39.833Z,101033.81
2023-05-04T16:33:06.568Z,101033.38
2023-05-04T16:35:34.708Z,101019.00
2023-05-04T16:38:01.433Z,101026.25
2023-05-04T16:40:28.356Z,101020.25
2023-05-04T16:42:54.960Z,101020.28
2023-05-04T16:45:21.463Z,101019.50
2023-05-04T16:47:47.920Z,101026.75
2023-05-04T16:50:14.667Z,101010.97
2023-05-04T16:52:41.308Z,101018.28
2023-05-04T16:55:11.304Z,101007.28
2023-05-04T16:57:38.635Z,101013.16
2023-05-04T17:00:06.607Z,101014.28
2023-05-04T17:02:33.504Z,101006.75
2023-05-04T17:05:00.001Z,101002.19
2023-05-04T17:07:26.433Z,101004.78
2023-05-04T17:09:52.844Z,101004.00
2023-05-04T17:12:19.719Z,100999.50
2023-05-04T17:14:46.289Z,100993.44
2023-05-04T17:17:12.695Z,100993.78
2023-05-04T17:19:40.375Z,100990.09
2023-05-04T17:22:07.142Z,100994.66
2023-05-04T17:24:33.563Z,100988.91
2023-05-04T17:26:59.988Z,100984.06
2023-05-04T17:29:26.624Z,100990.00
2023-05-04T17:31:53.094Z,100984.38
2023-05-04T17:34:19.568Z,100990.00
2023-05-04T17:36:46.061Z,100994.47
2023-05-04T17:39:12.474Z,100991.25
2023-05-04T17:41:39.024Z,100988.50
2023-05-04T17:44:05.472Z,100982.84
2023-05-04T17:46:32.114Z,100982.59
2023-05-04T17:48:58.565Z,100980.72
2023-05-04T17:51:25.023Z,100980.41
2023-05-04T17:53:51.461Z,100980.59
2023-05-04T17:56:19.639Z,100983.84
2023-05-04T17:58:46.227Z,100995.25
2023-05-04T18:01:12.713Z,100994.63
2023-05-04T18:03:39.394Z,100995.69
2023-05-04T18:06:06.175Z,100991.44
2023-05-04T18:08:32.566Z,100988.50
2023-05-04T18:10:58.970Z,100992.09
2023-05-04T18:13:25.481Z,100998.28
2023-05-04T18:15:52.069Z,100998.56
2023-05-04T18:18:18.517Z,101001.34
2023-05-04T18:20:44.902Z,101009.28
2023-05-04T18:23:11.371Z,101008.31
2023-05-04T18:25:37.888Z,101009.97
2023-05-04T18:28:06.052Z,101013.03
2023-05-04T18:30:32.474Z,101016.09
2023-05-04T18:32:58.862Z,101012.88
2023-05-04T18:35:25.426Z,101015.59
2023-05-04T18:37:51.873Z,101019.16
2023-05-04T18:40:18.530Z,101013.53
2023-05-04T18:42:44.978Z,101012.72
2023-05-04T18:45:11.909Z,101016.91
2023-05-04T18:47:38.405Z,101015.94
2023-05-04T18:50:05.621Z,101029.19
2023-05-04T18:52:32.781Z,101028.38
2023-05-04T18:54:59.687Z,101023.34
2023-05-04T18:57:27.233Z,101026.59
2023-05-04T18:59:54.790Z,101033.84
2023-05-04T19:02:21.216Z,101015.69
2023-05-04T19:04:47.775Z,101022.47
2023-05-04T19:07:15.581Z,101025.22
2023-05-04T19:09:42.240Z,101021.66
2023-05-04T19:12:08.657Z,101014.25
2023-05-04T19:14:35.043Z,101017.28
2023-05-04T19:17:02.218Z,101021.00
2023-05-04T19:19:29.032Z,101027.63
2023-05-04T19:21:55.683Z,101028.75
2023-05-04T19:24:22.294Z,101027.63
2023-05-04T19:26:48.701Z,101033.13
2023-05-04T19:29:15.304Z,101036.16
2023-05-04T19:31:41.809Z,101038.59
2023-05-04T19:34:08.337Z,101036.78
2023-05-04T19:36:34.865Z,101039.25
2023-05-04T19:39:01.542Z,101035.19
2023-05-04T19:41:28.072Z,101036.59
2023-05-04T19:43:54.546Z,101043.66
2023-05-04T19:46:21.237Z,101034.41
2023-05-04T19:48:47.699Z,101031.78
2023-05-04T19:51:15.932Z,101033.56
2023-05-04T19:53:42.374Z,101035.78
2023-05-04T19:56:08.846Z,101038.53
2023-05-04T19:58:35.238Z,101036.72
2023-05-04T20:01:01.756Z,101038.88
2023-05-04T20:03:28.323Z,101034.47
2023-05-04T20:05:55.579Z,101036.84
2023-05-04T20:08:22.231Z,101040.16
2023-05-04T20:10:48.782Z,101037.94
2023-05-04T20:13:15.324Z,101027.44
2023-05-04T20:15:42.536Z,101033.94
2023-05-04T20:18:09.070Z,101033.94
2023-05-04T20:20:35.552Z,101034.91
2023-05-04T20:23:02.179Z,101030.59
2023-05-04T20:25:29.145Z,101033.13
2023-05-04T20:27:55.681Z,101033.91
2023-05-04T20:30:23.689Z,101023.75
2023-05-04T20:32:50.216Z,101021.94
2023-05-04T20:35:17.150Z,101025.66
2023-05-04T20:37:43.602Z,101033.75
2023-05-04T20:40:10.450Z,101028.78
2023-05-04T20:42:36.938Z,101026.34
2023-05-04T20:45:03.579Z,101018.44
2023-05-04T20:47:30.036Z,101022.75
2023-05-04T20:49:56.658Z,101013.31
2023-05-04T20:52:23.301Z,101015.88
2023-05-04T20:54:49.704Z,101011.94
2023-05-04T20:57:16.155Z,101007.59
2023-05-04T20:59:42.653Z,101008.81
2023-05-04T21:02:11.388Z,101005.28
2023-05-04T21:04:37.892Z,100998.59
2023-05-04T21:07:04.303Z,101005.25
2023-05-04T21:09:30.761Z,100992.22
2023-05-04T21:11:58.459Z,101003.31
2023-05-04T21:14:24.887Z,100992.94
2023-05-04T21:16:51.358Z,101003.41
2023-05-04T21:19:17.843Z,100998.75
2023-05-04T21:21:44.347Z,100995.63
2023-05-04T21:24:14.078Z,101004.28
2023-05-04T21:26:41.252Z,100994.19
2023-05-04T21:29:14.515Z,100999.16
2023-05-04T21:31:41.702Z,101003.31
2023-05-04T21:34:08.330Z,100994.88
2023-05-04T21:36:34.862Z,101006.09
2023-05-04T21:39:01.596Z,101005.13
2023-05-04T21:41:27.995Z,100996.66
2023-05-04T21:43:54.530Z,101003.69
2023-05-04T21:46:21.100Z,101006.41
2023-05-04T21:48:47.518Z,100996.09
2023-05-04T21:51:13.983Z,100995.84
2023-05-04T21:53:43.422Z,100997.03
2023-05-04T21:56:10.884Z,100995.94
2023-05-04T21:58:42.132Z,100998.38
2023-05-04T22:01:09.517Z,100995.72
2023-05-04T22:03:36.496Z,100994.16
2023-05-04T22:06:03.316Z,100995.91
2023-05-04T22:08:29.856Z,100993.03
2023-05-04T22:10:57.553Z,100999.31
2023-05-04T22:13:24.399Z,100994.59
2023-05-04T22:15:51.193Z,100993.88
2023-05-04T22:18:18.044Z,100996.13
2023-05-04T22:20:44.630Z,100998.31
2023-05-04T22:23:11.460Z,100995.72
2023-05-04T22:25:38.862Z,100984.56
2023-05-04T22:28:05.571Z,100982.13
2023-05-04T22:30:32.287Z,100988.19
2023-05-04T22:32:59.003Z,100980.22
2023-05-04T22:35:25.507Z,100978.28
2023-05-04T22:37:52.187Z,100983.31
2023-05-04T22:40:18.865Z,100979.75
2023-05-04T22:42:45.617Z,100977.72
2023-05-04T22:45:13.953Z,100975.75
2023-05-04T22:47:41.228Z,100980.63
2023-05-04T22:50:11.267Z,100970.63
2023-05-04T22:52:38.494Z,100967.38
2023-05-04T22:55:06.372Z,100970.13
2023-05-04T22:57:32.822Z,100972.31
2023-05-04T23:00:02.151Z,100974.84
2023-05-04T23:02:28.671Z,100976.75
2023-05-04T23:04:55.160Z,100980.56
2023-05-04T23:07:21.592Z,100972.97
2023-05-04T23:09:48.022Z,100979.78
2023-05-04T23:12:15.166Z,100983.59
2023-05-04T23:14:41.967Z,100982.75
2023-05-04T23:17:09.405Z,100975.88
2023-05-04T23:19:38.404Z,100980.09
2023-05-04T23:22:04.814Z,100979.06
2023-05-04T23:24:31.359Z,100979.81
2023-05-04T23:26:58.721Z,100977.16
2023-05-04T23:29:25.519Z,100978.00
2023-05-04T23:31:53.262Z,100978.41
2023-05-04T23:34:20.148Z,100975.72
2023-05-04T23:36:46.594Z,100977.41
2023-05-04T23:39:13.090Z,100978.63
2023-05-04T23:41:40.048Z,100982.19
2023-05-04T23:44:06.526Z,100974.59
2023-05-04T23:46:32.973Z,100969.50
2023-05-04T23:48:59.427Z,100970.34
2023-05-04T23:51:27.268Z,100967.88
2023-05-04T23:53:54.251Z,100967.06
2023-05-04T23:56:20.775Z,100965.44
2023-05-04T23:58:47.254Z,100967.59
